Time,TemperatureF,DewpointF,PressureIn,WindDirection,WindDirectionDegrees,WindSpeedMPH,WindSpeedGustMPH,Humidity,HourlyPrecipIn,Conditions,Clouds,dailyrainin,SolarRadiationWatts/m^2,SoftwareType,DateUTC
2013-09-13 00:03:00,67.0,60.3,29.82,NW,317,0.0,0.0,79,0.00,CLR,,0.00,0.0,WeatherDisplay:10.37,2013-09-13 07:03:00,
2013-09-13 00:08:00,66.9,60.2,29.82,NW,317,0.0,0.0,79,0.00,CLR,,0.00,0.0,WeatherDisplay:10.37,2013-09-13 07:08:00,
2013-09-13 00:13:00,66.8,60.4,29.82,NW,317,0.0,0.0,80,0.00,CLR,,0.00,0.0,WeatherDisplay:10.37,2013-09-13 07:13:00,
2013-09-13 00:18:00,66.7,60.3,29.82,NW,317,0.0,0.0,80,0.00,CLR,,0.00,0.0,WeatherDisplay:10.37,2013-09-13 07:18:00,
2013-09-13 00:23:00,66.6,60.2,29.82,NW,317,0.0,0.0,80,0.00,CLR,,0.00,0.0,WeatherDisplay:10.37,2013-09-13 07:23:00,
2013-09-13 00:28:00,66.5,60.5,29.82,NW,317,0.0,0.0,81,0.00,CLR,,0.00,0.0,WeatherDisplay:10.37,2013-09-13 07:28:00,
2013-09-13 00:33:00,66.3,60.3,29.82,NW,317,0.0,0.0,81,0.00,CLR,,0.00,0.0,WeatherDisplay:10.37,2013-09-13 07:33:00,
2013-09-13 00:38:00,66.1,60.1,29.82,NW,317,0.0,0.0,81,0.00,CLR,,0.00,0.0,WeatherDisplay:10.37,2013-09-13 07:38:00,
2013-09-13 00:43:00,65.9,59.9,29.82,NW,317,0.0,0.0,81,0.00,CLR,,0.00,0.0,WeatherDisplay:10.37,2013-09-13 07:43:00,
2013-09-13 00:48:00,65.8,59.8,29.81,NW,317,0.0,0.0,81,0.00,CLR,,0.00,0.0,WeatherDisplay:10.37,2013-09-13 07:48:00,
2013-09-13 00:53:00,65.6,59.6,29.81,NW,317,0.0,0.0,81,0.00,CLR,,0.00,0.0,WeatherDisplay:10.37,2013-09-13 07:53:00,
2013-09-13 00:58:00,65.5,59.5,29.81,NW,317,0.0,0.0,81,0.00,CLR,,0.00,0.0,WeatherDisplay:10.37,2013-09-13 07:58:00,
2013-09-13 01:03:00,65.4,59.8,29.81,NW,317,0.0,0.0,82,0.00,CLR,,0.00,0.0,WeatherDisplay:10.37,2013-09-13 08:03:00,
2013-09-13 01:08:00,65.2,59.6,29.81,NW,317,0.0,0.0,82,0.00,CLR,,0.00,0.0,WeatherDisplay:10.37,2013-09-13 08:08:00,
2013-09-13 01:13:00,65.0,59.4,29.81,NW,317,0.0,0.0,82,0.00,CLR,,0.00,0.0,WeatherDisplay:10.37,2013-09-13 08:13:00,
2013-09-13 01:18:00,64.9,59.3,29.81,NW,317,0.0,0.0,82,0.00,CLR,,0.00,0.0,WeatherDisplay:10.37,2013-09-13 08:18:00,
2013-09-13 01:23:00,64.8,59.2,29.81,NW,317,0.0,0.0,82,0.00,CLR,,0.00,0.0,WeatherDisplay:10.37,2013-09-13 08:23:00,
2013-09-13 01:28:00,64.7,59.1,29.81,NW,317,0.0,0.0,82,0.00,CLR,,0.00,0.0,WeatherDisplay:10.37,2013-09-13 08:28:00,
2013-09-13 01:33:00,64.7,59.4,29.80,NW,317,0.0,0.0,83,0.00,CLR,,0.00,0.0,WeatherDisplay:10.37,2013-09-13 08:33:00,
2013-09-13 01:38:00,64.6,59.0,29.80,NW,316,0.0,0.0,82,0.00,CLR,,0.00,0.0,WeatherDisplay:10.37,2013-09-13 08:38:00,
2013-09-13 01:43:00,64.5,58.9,29.81,NW,317,0.0,0.0,82,0.00,CLR,,0.00,0.0,WeatherDisplay:10.37,2013-09-13 08:43:00,
2013-09-13 01:48:00,64.4,59.1,29.80,NW,317,0.0,0.0,83,0.00,CLR,,0.00,0.0,WeatherDisplay:10.37,2013-09-13 08:48:00,
2013-09-13 01:53:00,64.3,59.0,29.80,NW,317,0.0,0.0,83,0.00,CLR,,0.00,0.0,WeatherDisplay:10.37,2013-09-13 08:53:00,
2013-09-13 01:58:00,64.2,58.9,29.80,NW,317,0.0,0.0,83,0.00,CLR,,0.00,0.0,WeatherDisplay:10.37,2013-09-13 08:58:00,
2013-09-13 02:03:00,64.1,58.8,29.80,NW,317,0.0,0.0,83,0.00,CLR,,0.00,0.0,WeatherDisplay:10.37,2013-09-13 09:03:00,
2013-09-13 02:08:00,64.1,58.8,29.80,NW,317,0.0,0.0,83,0.00,CLR,,0.00,0.0,WeatherDisplay:10.37,2013-09-13 09:08:00,
2013-09-13 02:13:00,64.0,58.7,29.80,NW,317,0.0,0.0,83,0.00,CLR,,0.00,0.0,WeatherDisplay:10.37,2013-09-13 09:13:00,
2013-09-13 02:18:00,63.9,58.6,29.80,NW,317,0.0,0.0,83,0.00,CLR,,0.00,0.0,WeatherDisplay:10.37,2013-09-13 09:18:00,
2013-09-13 02:23:00,64.0,59.1,29.80,NW,316,0.0,0.0,84,0.00,CLR,,0.00,0.0,WeatherDisplay:10.37,2013-09-13 09:23:00,
2013-09-13 02:28:00,64.1,59.2,29.80,NW,317,0.0,0.0,84,0.00,CLR,,0.00,0.0,WeatherDisplay:10.37,2013-09-13 09:28:00,
2013-09-13 02:33:00,64.2,59.3,29.80,NW,317,0.0,0.0,84,0.00,CLR,,0.00,0.0,WeatherDisplay:10.37,2013-09-13 09:33:00,
2013-09-13 02:38:00,64.3,59.7,29.80,NW,317,0.0,0.0,85,0.00,CLR,,0.00,0.0,WeatherDisplay:10.37,2013-09-13 09:38:00,
2013-09-13 02:43:00,64.3,59.4,29.80,NW,317,0.0,0.0,84,0.00,CLR,,0.00,0.0,WeatherDisplay:10.37,2013-09-13 09:43:00,
2013-09-13 02:48:00,64.1,59.2,29.80,NW,317,0.0,0.0,84,0.00,CLR,,0.00,0.0,WeatherDisplay:10.37,2013-09-13 09:48:00,
2013-09-13 02:53:00,64.0,59.1,29.80,NW,317,0.0,0.0,84,0.00,CLR,,0.00,0.0,WeatherDisplay:10.37,2013-09-13 09:53:00,
2013-09-13 02:58:00,64.1,59.5,29.80,NW,317,0.0,0.0,85,0.00,CLR,,0.00,0.0,WeatherDisplay:10.37,2013-09-13 09:58:00,
2013-09-13 03:03:00,64.3,59.7,29.80,NW,317,3.5,3.5,85,0.00,CLR,,0.00,0.0,WeatherDisplay:10.37,2013-09-13 10:03:00,
2013-09-13 03:08:00,64.5,59.9,29.80,NW,317,0.0,0.0,85,0.00,CLR,,0.00,0.0,WeatherDisplay:10.37,2013-09-13 10:08:00,
2013-09-13 03:13:00,64.5,59.9,29.80,NW,317,0.0,0.0,85,0.00,CLR,,0.00,0.0,WeatherDisplay:10.37,2013-09-13 10:13:00,
2013-09-13 03:18:00,64.5,59.9,29.80,NW,317,0.0,0.0,85,0.00,CLR,,0.00,0.0,WeatherDisplay:10.37,2013-09-13 10:18:00,
2013-09-13 03:23:00,64.4,59.5,29.79,NW,316,0.0,0.0,84,0.00,CLR,,0.00,0.0,WeatherDisplay:10.37,2013-09-13 10:23:00,
2013-09-13 03:28:00,64.2,59.3,29.79,NW,317,0.0,0.0,84,0.00,CLR,,0.00,0.0,WeatherDisplay:10.37,2013-09-13 10:28:00,
2013-09-13 03:33:00,64.0,59.4,29.79,NW,317,0.0,0.0,85,0.00,CLR,,0.00,0.0,WeatherDisplay:10.37,2013-09-13 10:33:00,
2013-09-13 03:38:00,63.8,59.2,29.79,NW,317,0.0,0.0,85,0.00,CLR,,0.00,0.0,WeatherDisplay:10.37,2013-09-13 10:38:00,
2013-09-13 03:43:00,63.6,59.0,29.79,NW,317,1.2,1.2,85,0.00,CLR,,0.00,0.0,WeatherDisplay:10.37,2013-09-13 10:43:00,
2013-09-13 03:48:00,63.3,58.7,29.79,NW,317,0.0,0.0,85,0.00,CLR,,0.00,0.0,WeatherDisplay:10.37,2013-09-13 10:48:00,
2013-09-13 03:53:00,63.1,58.5,29.79,NW,317,0.0,0.0,85,0.00,CLR,,0.00,0.0,WeatherDisplay:10.37,2013-09-13 10:53:00,
2013-09-13 03:58:00,62.9,58.3,29.79,NW,317,0.0,0.0,85,0.00,CLR,,0.00,0.0,WeatherDisplay:10.37,2013-09-13 10:58:00,
2013-09-13 04:03:00,62.8,58.2,29.79,NW,317,0.0,0.0,85,0.00,CLR,,0.00,0.0,WeatherDisplay:10.37,2013-09-13 11:03:00,
2013-09-13 04:08:00,62.6,58.0,29.79,NW,317,0.0,0.0,85,0.00,CLR,,0.00,0.0,WeatherDisplay:10.37,2013-09-13 11:08:00,
2013-09-13 04:13:00,62.4,57.8,29.79,NW,317,1.2,0.0,85,0.00,CLR,,0.00,0.0,WeatherDisplay:10.37,2013-09-13 11:13:00,
2013-09-13 04:18:00,62.3,57.7,29.79,NW,317,0.0,0.0,85,0.00,CLR,,0.00,0.0,WeatherDisplay:10.37,2013-09-13 11:18:00,
2013-09-13 04:23:00,62.3,58.1,29.79,NW,317,0.0,0.0,86,0.00,CLR,,0.00,0.0,WeatherDisplay:10.37,2013-09-13 11:23:00,
2013-09-13 04:28:00,62.3,58.1,29.79,NW,317,0.0,0.0,86,0.00,CLR,,0.00,0.0,WeatherDisplay:10.37,2013-09-13 11:28:00,
2013-09-13 04:33:00,62.2,58.0,29.78,NW,317,0.0,0.0,86,0.00,CLR,,0.00,0.0,WeatherDisplay:10.37,2013-09-13 11:33:00,
2013-09-13 04:38:00,62.2,58.0,29.79,NW,317,0.0,0.0,86,0.00,CLR,,0.00,0.0,WeatherDisplay:10.37,2013-09-13 11:38:00,
2013-09-13 04:43:00,62.2,58.0,29.79,NW,317,0.0,0.0,86,0.00,CLR,,0.00,0.0,WeatherDisplay:10.37,2013-09-13 11:43:00,
2013-09-13 04:48:00,62.2,58.0,29.79,NW,317,0.0,0.0,86,0.00,CLR,,0.00,0.0,WeatherDisplay:10.37,2013-09-13 11:48:00,
2013-09-13 04:53:00,62.1,57.9,29.78,NW,317,0.0,0.0,86,0.00,CLR,,0.00,0.0,WeatherDisplay:10.37,2013-09-13 11:53:00,
2013-09-13 04:58:00,62.0,57.8,29.79,NW,317,0.0,0.0,86,0.00,CLR,,0.00,0.0,WeatherDisplay:10.37,2013-09-13 11:58:00,
2013-09-13 05:03:00,61.9,57.7,29.79,NW,317,0.0,0.0,86,0.00,CLR,,0.00,0.0,WeatherDisplay:10.37,2013-09-13 12:03:00,
2013-09-13 05:08:00,61.9,57.7,29.79,NW,317,0.0,0.0,86,0.00,CLR,,0.00,0.0,WeatherDisplay:10.37,2013-09-13 12:08:00,
2013-09-13 05:13:00,61.8,57.6,29.79,NW,317,0.0,0.0,86,0.00,CLR,,0.00,0.0,WeatherDisplay:10.37,2013-09-13 12:13:00,
2013-09-13 05:18:00,61.7,57.5,29.79,NW,317,0.0,0.0,86,0.00,CLR,,0.00,0.0,WeatherDisplay:10.37,2013-09-13 12:18:00,
2013-09-13 05:23:00,61.7,57.5,29.79,NW,317,0.0,0.0,86,0.00,CLR,,0.00,0.0,WeatherDisplay:10.37,2013-09-13 12:23:00,
2013-09-13 05:29:00,61.6,57.4,29.79,NW,317,0.0,0.0,86,0.00,CLR,,0.00,0.0,WeatherDisplay:10.37,2013-09-13 12:29:00,
2013-09-13 05:34:00,61.5,57.3,29.79,NW,317,0.0,0.0,86,0.00,CLR,,0.00,0.0,WeatherDisplay:10.37,2013-09-13 12:34:00,
2013-09-13 05:39:00,61.4,57.2,29.79,NW,317,0.0,0.0,86,0.00,CLR,,0.00,0.0,WeatherDisplay:10.37,2013-09-13 12:39:00,
2013-09-13 05:44:00,61.3,57.1,29.79,NW,317,0.0,0.0,86,0.00,CLR,,0.00,0.0,WeatherDisplay:10.37,2013-09-13 12:44:00,
2013-09-13 05:49:00,61.2,57.0,29.79,NW,317,0.0,0.0,86,0.00,CLR,,0.00,0.0,WeatherDisplay:10.37,2013-09-13 12:49:00,
2013-09-13 05:54:00,61.1,56.9,29.79,NW,317,0.0,0.0,86,0.00,CLR,,0.00,0.0,WeatherDisplay:10.37,2013-09-13 12:54:00,
2013-09-13 05:59:00,61.0,56.8,29.79,NW,317,0.0,0.0,86,0.00,CLR,,0.00,0.0,WeatherDisplay:10.37,2013-09-13 12:59:00,
2013-09-13 06:04:00,60.9,56.7,29.79,NW,317,0.0,0.0,86,0.00,CLR,,0.00,0.0,WeatherDisplay:10.37,2013-09-13 13:04:00,
2013-09-13 06:09:00,60.8,56.3,29.79,NW,317,0.0,0.0,85,0.00,CLR,,0.00,0.0,WeatherDisplay:10.37,2013-09-13 13:09:00,
2013-09-13 06:14:00,60.8,56.3,29.79,NW,317,0.0,0.0,85,0.00,CLR,,0.00,0.0,WeatherDisplay:10.37,2013-09-13 13:14:00,
2013-09-13 06:19:00,60.8,56.3,29.79,NW,317,0.0,0.0,85,0.00,CLR,,0.00,0.0,WeatherDisplay:10.37,2013-09-13 13:19:00,
2013-09-13 06:24:00,60.8,56.3,29.79,NW,317,0.0,0.0,85,0.00,CLR,,0.00,0.0,WeatherDisplay:10.37,2013-09-13 13:24:00,
2013-09-13 06:29:00,60.8,56.3,29.79,NW,317,0.0,0.0,85,0.00,CLR,,0.00,0.0,WeatherDisplay:10.37,2013-09-13 13:29:00,
2013-09-13 06:34:00,60.7,56.2,29.79,NW,317,0.0,0.0,85,0.00,CLR,,0.00,0.0,WeatherDisplay:10.37,2013-09-13 13:34:00,
2013-09-13 06:39:00,60.6,56.1,29.79,NW,317,0.0,0.0,85,0.00,BKN,,0.00,5.0,WeatherDisplay:10.37,2013-09-13 13:39:00,
2013-09-13 06:44:00,60.6,56.1,29.79,NW,317,0.0,0.0,85,0.00,BKN,,0.00,9.0,WeatherDisplay:10.37,2013-09-13 13:44:00,
2013-09-13 06:49:00,60.6,56.1,29.79,NW,317,0.0,0.0,85,0.00,BKN,,0.00,12.0,WeatherDisplay:10.37,2013-09-13 13:49:00,
2013-09-13 06:54:00,60.7,56.5,29.80,NW,317,1.2,0.0,86,0.00,BKN,,0.00,16.0,WeatherDisplay:10.37,2013-09-13 13:54:00,
2013-09-13 06:59:00,61.0,56.8,29.79,NW,316,1.2,0.0,86,0.00,BKN,,0.00,21.0,WeatherDisplay:10.37,2013-09-13 13:59:00,
2013-09-13 07:04:00,61.3,56.8,29.79,NW,317,1.2,1.2,85,0.00,BKN,,0.00,28.0,WeatherDisplay:10.37,2013-09-13 14:04:00,
2013-09-13 07:09:00,61.7,56.8,29.79,NW,317,1.2,1.2,84,0.00,BKN,,0.00,37.0,WeatherDisplay:10.37,2013-09-13 14:09:00,
2013-09-13 07:14:00,62.2,57.3,29.80,NW,317,1.2,1.2,84,0.00,BKN,,0.00,47.0,WeatherDisplay:10.37,2013-09-13 14:14:00,
2013-09-13 07:19:00,62.7,57.1,29.79,NW,319,3.5,3.5,82,0.00,BKN,,0.00,56.0,WeatherDisplay:10.37,2013-09-13 14:19:00,
2013-09-13 07:24:00,63.2,57.3,29.80,NW,319,1.2,1.2,81,0.00,BKN,,0.00,67.0,WeatherDisplay:10.37,2013-09-13 14:24:00,
2013-09-13 07:29:00,63.7,57.4,29.80,NW,319,1.2,1.2,80,0.00,SCT,,0.00,79.0,WeatherDisplay:10.37,2013-09-13 14:29:00,
2013-09-13 07:34:00,64.3,58.0,29.80,NW,319,2.3,0.0,80,0.00,SCT,,0.00,95.0,WeatherDisplay:10.37,2013-09-13 14:34:00,
2013-09-13 07:39:00,64.9,58.6,29.80,NW,320,2.3,2.3,80,0.00,SCT,,0.00,111.0,WeatherDisplay:10.37,2013-09-13 14:39:00,
2013-09-13 07:44:00,65.5,59.2,29.80,NW,320,2.3,2.3,80,0.00,SCT,,0.00,128.0,WeatherDisplay:10.37,2013-09-13 14:44:00,
2013-09-13 07:49:00,66.0,60.0,29.80,ESE,121,3.5,3.5,81,0.00,SCT,,0.00,142.0,WeatherDisplay:10.37,2013-09-13 14:49:00,
2013-09-13 07:54:00,66.3,60.3,29.79,SSE,150,4.0,4.0,81,0.00,SCT,,0.00,162.0,WeatherDisplay:10.37,2013-09-13 14:54:00,
2013-09-13 07:59:00,66.4,60.7,29.80,SE,144,4.0,4.0,82,0.00,SCT,,0.00,178.0,WeatherDisplay:10.37,2013-09-13 14:59:00,
2013-09-13 08:04:00,66.4,60.7,29.80,SE,136,2.3,2.3,82,0.00,FEW,,0.00,195.0,WeatherDisplay:10.37,2013-09-13 15:04:00,
2013-09-13 08:09:00,66.6,60.9,29.80,SE,140,3.5,3.5,82,0.00,FEW,,0.00,211.0,WeatherDisplay:10.37,2013-09-13 15:09:00,
2013-09-13 08:14:00,66.8,61.5,29.80,SE,143,4.0,4.0,83,0.00,FEW,,0.00,225.0,WeatherDisplay:10.37,2013-09-13 15:14:00,
2013-09-13 08:19:00,66.8,61.5,29.79,SSE,157,3.5,3.5,83,0.00,FEW,,0.00,237.0,WeatherDisplay:10.37,2013-09-13 15:19:00,
2013-09-13 08:24:00,67.0,61.7,29.79,SSE,148,3.5,3.5,83,0.00,FEW,,0.00,253.0,WeatherDisplay:10.37,2013-09-13 15:24:00,
2013-09-13 08:29:00,67.2,61.5,29.80,SSE,148,3.5,3.5,82,0.00,FEW,,0.00,269.0,WeatherDisplay:10.37,2013-09-13 15:29:00,
2013-09-13 08:34:00,67.6,61.9,29.79,SE,134,3.5,3.5,82,0.00,FEW,,0.00,285.0,WeatherDisplay:10.37,2013-09-13 15:34:00,
2013-09-13 08:39:00,67.9,61.5,29.79,SE,136,3.5,3.5,80,0.00,FEW,,0.00,299.0,WeatherDisplay:10.37,2013-09-13 15:39:00,
2013-09-13 08:44:00,68.1,61.7,29.79,SE,142,3.5,3.5,80,0.00,FEW,,0.00,315.0,WeatherDisplay:10.37,2013-09-13 15:44:00,
2013-09-13 08:49:00,68.2,61.4,29.79,SSE,161,3.5,3.5,79,0.00,FEW,,0.00,330.0,WeatherDisplay:10.37,2013-09-13 15:49:00,
2013-09-13 08:54:00,68.6,61.1,29.79,SSE,155,3.5,3.5,77,0.00,FEW,,0.00,345.0,WeatherDisplay:10.37,2013-09-13 15:54:00,
2013-09-13 08:59:00,69.0,61.1,29.79,SSE,157,4.0,4.0,76,0.00,FEW,,0.00,359.0,WeatherDisplay:10.37,2013-09-13 15:59:00,
2013-09-13 09:04:00,69.4,61.1,29.79,SSE,157,1.2,1.2,75,0.00,FEW,,0.00,373.0,WeatherDisplay:10.37,2013-09-13 16:04:00,
2013-09-13 09:09:00,70.0,61.3,29.79,SSE,163,3.5,3.5,74,0.00,FEW,,0.00,388.0,WeatherDisplay:10.37,2013-09-13 16:09:00,
2013-09-13 09:14:00,70.2,60.7,29.79,SSE,165,3.5,3.5,72,0.00,FEW,,0.00,401.0,WeatherDisplay:10.37,2013-09-13 16:14:00,
2013-09-13 09:19:00,70.7,60.8,29.79,SSE,165,3.5,3.5,71,0.00,FEW,,0.00,418.0,WeatherDisplay:10.37,2013-09-13 16:19:00,
2013-09-13 09:24:00,71.3,61.0,29.79,SSE,164,3.0,3.0,70,0.00,FEW,,0.00,431.0,WeatherDisplay:10.37,2013-09-13 16:24:00,
2013-09-13 09:29:00,71.9,60.8,29.79,SSE,164,3.5,3.5,68,0.00,FEW,,0.00,445.0,WeatherDisplay:10.37,2013-09-13 16:29:00,
2013-09-13 09:34:00,72.1,61.0,29.79,SSE,166,3.5,3.5,68,0.00,FEW,,0.00,448.0,WeatherDisplay:10.37,2013-09-13 16:34:00,
2013-09-13 09:39:00,72.6,61.4,29.79,SSE,166,3.5,3.5,68,0.00,FEW,,0.00,468.0,WeatherDisplay:10.37,2013-09-13 16:39:00,
2013-09-13 09:44:00,73.1,61.5,29.79,South,177,3.5,3.5,67,0.00,FEW,,0.00,482.0,WeatherDisplay:10.37,2013-09-13 16:44:00,
2013-09-13 09:49:00,73.5,61.4,29.79,South,178,3.5,3.5,66,0.00,FEW,,0.00,494.0,WeatherDisplay:10.37,2013-09-13 16:49:00,
2013-09-13 09:54:00,73.8,61.3,29.79,South,177,3.0,3.0,65,0.00,FEW,,0.00,506.0,WeatherDisplay:10.37,2013-09-13 16:54:00,
2013-09-13 09:59:00,73.9,61.4,29.79,SSW,203,3.5,3.5,65,0.00,FEW,,0.00,522.0,WeatherDisplay:10.37,2013-09-13 16:59:00,
2013-09-13 10:04:00,74.1,61.1,29.79,SSW,203,4.0,4.0,64,0.00,FEW,,0.00,533.0,WeatherDisplay:10.37,2013-09-13 17:04:00,
2013-09-13 10:09:00,74.4,61.0,29.79,SSW,201,2.3,2.3,63,0.00,FEW,,0.00,547.0,WeatherDisplay:10.37,2013-09-13 17:09:00,
2013-09-13 10:14:00,75.0,61.5,29.78,South,190,5.0,5.0,63,0.00,FEW,,0.00,559.0,WeatherDisplay:10.37,2013-09-13 17:14:00,
2013-09-13 10:19:00,75.2,62.2,29.79,South,190,5.0,5.0,64,0.00,FEW,,0.00,568.0,WeatherDisplay:10.37,2013-09-13 17:19:00,
2013-09-13 10:24:00,75.5,62.0,29.78,South,191,3.5,3.5,63,0.00,FEW,,0.00,582.0,WeatherDisplay:10.37,2013-09-13 17:24:00,
2013-09-13 10:29:00,75.7,61.8,29.78,SSW,194,3.5,3.5,62,0.00,FEW,,0.00,594.0,WeatherDisplay:10.37,2013-09-13 17:29:00,
2013-09-13 10:34:00,76.3,62.3,29.78,SSW,195,4.0,4.0,62,0.00,FEW,,0.00,603.0,WeatherDisplay:10.37,2013-09-13 17:34:00,
2013-09-13 10:39:00,76.6,61.7,29.78,SSW,198,3.5,3.5,60,0.00,FEW,,0.00,615.0,WeatherDisplay:10.37,2013-09-13 17:39:00,
2013-09-13 10:44:00,76.7,60.8,29.78,SSW,198,3.5,3.5,58,0.00,FEW,,0.00,624.0,WeatherDisplay:10.37,2013-09-13 17:44:00,
2013-09-13 10:49:00,77.1,61.2,29.78,South,185,3.5,3.5,58,0.00,FEW,,0.00,629.0,WeatherDisplay:10.37,2013-09-13 17:49:00,
2013-09-13 10:54:00,77.7,61.3,29.78,South,184,4.0,4.0,57,0.00,FEW,,0.00,642.0,WeatherDisplay:10.37,2013-09-13 17:54:00,
2013-09-13 10:59:00,78.0,61.0,29.78,South,184,3.5,3.5,56,0.00,FEW,,0.00,647.0,WeatherDisplay:10.37,2013-09-13 17:59:00,
2013-09-13 11:04:00,78.4,61.4,29.78,WSW,248,3.5,3.5,56,0.00,FEW,,0.00,657.0,WeatherDisplay:10.37,2013-09-13 18:04:00,
2013-09-13 11:09:00,78.4,61.4,29.77,SSW,192,4.6,4.6,56,0.00,FEW,,0.00,666.0,WeatherDisplay:10.37,2013-09-13 18:09:00,
2013-09-13 11:14:00,78.9,60.8,29.77,SSW,194,3.5,3.5,54,0.00,FEW,,0.00,671.0,WeatherDisplay:10.37,2013-09-13 18:14:00,
2013-09-13 11:19:00,78.9,60.3,29.77,South,186,6.9,6.9,53,0.00,FEW,,0.00,682.0,WeatherDisplay:10.37,2013-09-13 18:19:00,
2013-09-13 11:24:00,79.3,61.2,29.77,South,186,2.3,2.3,54,0.00,FEW,,0.00,691.0,WeatherDisplay:10.37,2013-09-13 18:24:00,
2013-09-13 11:29:00,79.8,60.6,29.77,SSW,202,6.9,6.9,52,0.00,FEW,,0.00,696.0,WeatherDisplay:10.37,2013-09-13 18:29:00,
2013-09-13 11:34:00,79.7,60.5,29.77,SSW,200,5.8,5.8,52,0.00,FEW,,0.00,701.0,WeatherDisplay:10.37,2013-09-13 18:34:00,
2013-09-13 11:39:00,79.8,61.1,29.76,South,190,6.0,6.0,53,0.00,FEW,,0.00,705.0,WeatherDisplay:10.37,2013-09-13 18:39:00,
2013-09-13 11:44:00,80.6,60.8,29.76,SSW,207,6.0,6.0,51,0.00,FEW,,0.00,710.0,WeatherDisplay:10.37,2013-09-13 18:44:00,
2013-09-13 11:49:00,80.8,60.4,29.76,SSW,210,3.5,3.5,50,0.00,FEW,,0.00,717.0,WeatherDisplay:10.37,2013-09-13 18:49:00,
2013-09-13 11:54:00,81.5,61.1,29.75,WSW,246,4.6,4.6,50,0.00,FEW,,0.00,722.0,WeatherDisplay:10.37,2013-09-13 18:54:00,
2013-09-13 11:59:00,81.5,60.5,29.75,WNW,285,4.6,4.6,49,0.00,FEW,,0.00,728.0,WeatherDisplay:10.37,2013-09-13 18:59:00,
2013-09-13 12:04:00,81.9,61.4,29.75,SSW,204,6.0,6.0,50,0.00,FEW,,0.00,729.0,WeatherDisplay:10.37,2013-09-13 19:04:00,
2013-09-13 12:09:00,81.7,60.1,29.75,SSW,212,4.6,4.6,48,0.00,FEW,,0.00,729.0,WeatherDisplay:10.37,2013-09-13 19:09:00,
2013-09-13 12:14:00,81.7,60.7,29.75,SSW,212,2.3,2.3,49,0.00,FEW,,0.00,738.0,WeatherDisplay:10.37,2013-09-13 19:14:00,
2013-09-13 12:19:00,81.8,62.5,29.75,South,187,6.0,6.0,52,0.00,FEW,,0.00,738.0,WeatherDisplay:10.37,2013-09-13 19:19:00,
2013-09-13 12:24:00,81.8,63.0,29.74,South,182,8.1,8.1,53,0.00,FEW,,0.00,744.0,WeatherDisplay:10.37,2013-09-13 19:24:00,
2013-09-13 12:29:00,81.7,63.4,29.74,South,179,4.6,4.6,54,0.00,FEW,,0.00,744.0,WeatherDisplay:10.37,2013-09-13 19:29:00,
2013-09-13 12:34:00,81.7,62.9,29.74,South,191,6.0,6.0,53,0.00,FEW,,0.00,747.0,WeatherDisplay:10.37,2013-09-13 19:34:00,
2013-09-13 12:39:00,82.3,62.9,29.74,South,180,7.0,7.0,52,0.00,FEW,,0.00,744.0,WeatherDisplay:10.37,2013-09-13 19:39:00,
2013-09-13 12:44:00,82.3,62.9,29.74,SSE,160,8.1,8.1,52,0.00,FEW,,0.00,749.0,WeatherDisplay:10.37,2013-09-13 19:44:00,
2013-09-13 12:49:00,82.3,62.9,29.73,South,176,5.8,5.8,52,0.00,FEW,,0.00,744.0,WeatherDisplay:10.37,2013-09-13 19:49:00,
2013-09-13 12:54:00,82.5,62.5,29.73,SE,142,6.9,6.9,51,0.00,FEW,,0.00,747.0,WeatherDisplay:10.37,2013-09-13 19:54:00,
2013-09-13 12:59:00,82.8,62.8,29.73,South,182,5.0,5.0,51,0.00,FEW,,0.00,742.0,WeatherDisplay:10.37,2013-09-13 19:59:00,
2013-09-13 13:04:00,83.3,62.1,29.72,SSW,192,7.0,7.0,49,0.00,FEW,,0.00,740.0,WeatherDisplay:10.37,2013-09-13 20:04:00,
2013-09-13 13:09:00,83.4,62.2,29.72,SSW,206,4.6,4.6,49,0.00,FEW,,0.00,740.0,WeatherDisplay:10.37,2013-09-13 20:09:00,
2013-09-13 13:14:00,83.6,63.0,29.72,SSW,207,5.8,5.8,50,0.00,FEW,,0.00,740.0,WeatherDisplay:10.37,2013-09-13 20:14:00,
2013-09-13 13:19:00,83.4,62.8,29.72,SE,137,8.1,8.1,50,0.00,FEW,,0.00,738.0,WeatherDisplay:10.37,2013-09-13 20:19:00,
2013-09-13 13:24:00,83.4,62.8,29.72,ESE,119,9.2,9.2,50,0.00,FEW,,0.00,729.0,WeatherDisplay:10.37,2013-09-13 20:24:00,
2013-09-13 13:29:00,83.2,63.2,29.72,SSW,205,9.2,9.2,51,0.00,FEW,,0.00,728.0,WeatherDisplay:10.37,2013-09-13 20:29:00,
2013-09-13 13:34:00,83.4,63.4,29.72,SE,140,11.5,11.5,51,0.00,FEW,,0.00,722.0,WeatherDisplay:10.37,2013-09-13 20:34:00,
2013-09-13 13:39:00,83.3,63.8,29.71,SE,145,8.1,8.1,52,0.00,FEW,,0.00,717.0,WeatherDisplay:10.37,2013-09-13 20:39:00,
2013-09-13 13:44:00,83.2,63.7,29.71,SSE,163,8.0,8.0,52,0.00,FEW,,0.00,717.0,WeatherDisplay:10.37,2013-09-13 20:44:00,
2013-09-13 13:49:00,83.3,63.8,29.71,SE,145,10.4,10.4,52,0.00,FEW,,0.00,710.0,WeatherDisplay:10.37,2013-09-13 20:49:00,
2013-09-13 13:54:00,82.9,64.0,29.70,SSW,210,7.0,7.0,53,0.00,SCT,,0.00,476.0,WeatherDisplay:10.37,2013-09-13 20:54:00,
2013-09-13 13:59:00,83.0,64.1,29.70,South,187,9.2,9.2,53,0.00,FEW,,0.00,701.0,WeatherDisplay:10.37,2013-09-13 20:59:00,
2013-09-13 14:04:00,83.2,63.7,29.70,South,171,6.9,6.9,52,0.00,FEW,,0.00,696.0,WeatherDisplay:10.37,2013-09-13 21:04:00,
2013-09-13 14:09:00,83.7,64.2,29.70,SW,231,9.2,9.2,52,0.00,FEW,,0.00,687.0,WeatherDisplay:10.37,2013-09-13 21:09:00,
2013-09-13 14:14:00,84.0,64.5,29.69,SSE,163,9.2,9.2,52,0.00,FEW,,0.00,677.0,WeatherDisplay:10.37,2013-09-13 21:14:00,
2013-09-13 14:19:00,84.7,64.6,29.69,SSE,155,6.9,6.9,51,0.00,FEW,,0.00,675.0,WeatherDisplay:10.37,2013-09-13 21:19:00,
2013-09-13 14:24:00,84.8,64.1,29.69,SSW,198,8.1,8.1,50,0.00,FEW,,0.00,671.0,WeatherDisplay:10.37,2013-09-13 21:24:00,
2013-09-13 14:29:00,84.7,64.6,29.69,SSW,211,8.1,8.1,51,0.00,FEW,,0.00,661.0,WeatherDisplay:10.37,2013-09-13 21:29:00,
2013-09-13 14:34:00,84.7,64.6,29.68,SSE,156,8.1,8.1,51,0.00,FEW,,0.00,650.0,WeatherDisplay:10.37,2013-09-13 21:34:00,
2013-09-13 14:39:00,85.9,64.5,29.68,South,190,5.0,5.0,49,0.00,FEW,,0.00,645.0,WeatherDisplay:10.37,2013-09-13 21:39:00,
2013-09-13 14:44:00,86.4,64.4,29.68,SSW,202,8.1,8.1,48,0.00,FEW,,0.00,631.0,WeatherDisplay:10.37,2013-09-13 21:44:00,
2013-09-13 14:49:00,85.9,64.5,29.68,SE,142,6.0,6.0,49,0.00,FEW,,0.00,624.0,WeatherDisplay:10.37,2013-09-13 21:49:00,
2013-09-13 14:54:00,86.0,64.0,29.68,South,188,10.4,10.4,48,0.00,FEW,,0.00,617.0,WeatherDisplay:10.37,2013-09-13 21:54:00,
2013-09-13 14:59:00,86.1,64.1,29.68,SSW,196,6.9,6.9,48,0.00,FEW,,0.00,605.0,WeatherDisplay:10.37,2013-09-13 21:59:00,
2013-09-13 15:04:00,86.1,64.1,29.67,WSW,238,4.6,4.6,48,0.00,FEW,,0.00,594.0,WeatherDisplay:10.37,2013-09-13 22:04:00,
2013-09-13 15:09:00,86.9,64.2,29.67,South,190,7.0,7.0,47,0.00,FEW,,0.00,585.0,WeatherDisplay:10.37,2013-09-13 22:09:00,
2013-09-13 15:14:00,87.2,64.5,29.67,SSW,211,7.0,7.0,47,0.00,FEW,,0.00,577.0,WeatherDisplay:10.37,2013-09-13 22:14:00,
2013-09-13 15:19:00,87.2,64.5,29.67,South,190,9.2,9.2,47,0.00,FEW,,0.00,559.0,WeatherDisplay:10.37,2013-09-13 22:19:00,
2013-09-13 15:24:00,86.6,64.6,29.67,SSW,207,8.0,8.0,48,0.00,FEW,,0.00,554.0,WeatherDisplay:10.37,2013-09-13 22:24:00,
2013-09-13 15:29:00,86.9,63.6,29.67,South,181,5.8,5.8,46,0.00,FEW,,0.00,540.0,WeatherDisplay:10.37,2013-09-13 22:29:00,
2013-09-13 15:34:00,86.9,64.2,29.67,SSW,209,6.9,6.9,47,0.00,FEW,,0.00,527.0,WeatherDisplay:10.37,2013-09-13 22:34:00,
2013-09-13 15:39:00,86.8,64.2,29.67,SW,220,6.9,6.9,47,0.00,FEW,,0.00,519.0,WeatherDisplay:10.37,2013-09-13 22:39:00,
2013-09-13 15:44:00,86.7,64.1,29.67,SSW,207,9.2,9.2,47,0.00,FEW,,0.00,508.0,WeatherDisplay:10.37,2013-09-13 22:44:00,
2013-09-13 15:49:00,86.8,61.6,29.66,SW,219,5.8,5.8,43,0.00,FEW,,0.00,494.0,WeatherDisplay:10.37,2013-09-13 22:49:00,
2013-09-13 15:54:00,87.2,61.3,29.66,SSW,203,5.8,5.8,42,0.00,FEW,,0.00,480.0,WeatherDisplay:10.37,2013-09-13 22:54:00,
2013-09-13 15:59:00,88.2,62.2,29.66,SSW,194,8.1,8.1,42,0.00,FEW,,0.00,468.0,WeatherDisplay:10.37,2013-09-13 22:59:00,
2013-09-13 16:04:00,88.0,60.7,29.66,WNW,294,6.0,6.0,40,0.00,FEW,,0.00,455.0,WeatherDisplay:10.37,2013-09-13 23:04:00,
2013-09-13 16:09:00,88.0,59.9,29.66,West,265,8.1,8.1,39,0.00,FEW,,0.00,441.0,WeatherDisplay:10.37,2013-09-13 23:09:00,
2013-09-13 16:14:00,87.9,59.8,29.66,West,269,8.1,8.1,39,0.00,FEW,,0.00,429.0,WeatherDisplay:10.37,2013-09-13 23:14:00,
2013-09-13 16:19:00,87.9,60.6,29.66,West,265,8.1,8.1,40,0.00,FEW,,0.00,417.0,WeatherDisplay:10.37,2013-09-13 23:19:00,
2013-09-13 16:24:00,87.6,60.3,29.66,West,277,9.2,9.2,40,0.00,FEW,,0.00,403.0,WeatherDisplay:10.37,2013-09-13 23:24:00,
2013-09-13 16:29:00,86.3,59.8,29.66,WSW,257,8.1,8.1,41,0.00,FEW,,0.00,392.0,WeatherDisplay:10.37,2013-09-13 23:29:00,
2013-09-13 16:34:00,85.6,59.2,29.65,West,265,10.4,10.4,41,0.00,FEW,,0.00,376.0,WeatherDisplay:10.37,2013-09-13 23:34:00,
2013-09-13 16:39:00,85.3,59.6,29.66,West,265,9.2,9.2,42,0.00,FEW,,0.00,362.0,WeatherDisplay:10.37,2013-09-13 23:39:00,
2013-09-13 16:44:00,85.7,59.3,29.66,WNW,292,9.2,9.2,41,0.00,FEW,,0.00,348.0,WeatherDisplay:10.37,2013-09-13 23:44:00,
2013-09-13 16:49:00,85.4,59.7,29.65,West,264,8.0,8.0,42,0.00,FEW,,0.00,332.0,WeatherDisplay:10.37,2013-09-13 23:49:00,
2013-09-13 16:54:00,85.6,59.2,29.65,WNW,293,9.2,9.2,41,0.00,FEW,,0.00,316.0,WeatherDisplay:10.37,2013-09-13 23:54:00,
2013-09-13 16:59:00,84.9,59.2,29.65,WNW,287,10.4,10.4,42,0.00,FEW,,0.00,301.0,WeatherDisplay:10.37,2013-09-13 23:59:00,
2013-09-13 17:04:00,84.7,59.1,29.65,West,265,8.1,8.1,42,0.00,FEW,,0.00,287.0,WeatherDisplay:10.37,2013-09-14 00:04:00,
2013-09-13 17:09:00,84.7,58.4,29.65,WNW,288,5.8,5.8,41,0.00,FEW,,0.00,271.0,WeatherDisplay:10.37,2013-09-14 00:09:00,
2013-09-13 17:14:00,84.6,60.3,29.65,WNW,300,9.2,9.2,44,0.00,FEW,,0.00,258.0,WeatherDisplay:10.37,2013-09-14 00:14:00,
2013-09-13 17:19:00,85.0,59.3,29.65,WSW,243,3.5,3.5,42,0.00,FEW,,0.00,244.0,WeatherDisplay:10.37,2013-09-14 00:19:00,
2013-09-13 17:24:00,85.1,57.4,29.65,SW,219,7.0,7.0,39,0.00,FEW,,0.00,229.0,WeatherDisplay:10.37,2013-09-14 00:24:00,
2013-09-13 17:29:00,84.7,57.7,29.65,SW,229,6.9,6.9,40,0.00,FEW,,0.00,214.0,WeatherDisplay:10.37,2013-09-14 00:29:00,
2013-09-13 17:34:00,84.8,57.8,29.65,West,259,7.0,7.0,40,0.00,FEW,,0.00,200.0,WeatherDisplay:10.37,2013-09-14 00:34:00,
2013-09-13 17:39:00,84.8,58.5,29.65,SW,218,5.0,5.0,41,0.00,FEW,,0.00,185.0,WeatherDisplay:10.37,2013-09-14 00:39:00,
2013-09-13 17:44:00,84.6,59.0,29.65,West,259,6.0,6.0,42,0.00,FEW,,0.00,171.0,WeatherDisplay:10.37,2013-09-14 00:44:00,
2013-09-13 17:49:00,84.6,59.0,29.65,West,265,5.0,5.0,42,0.00,FEW,,0.00,155.0,WeatherDisplay:10.37,2013-09-14 00:49:00,
2013-09-13 17:54:00,84.7,59.1,29.64,SSW,213,5.0,5.0,42,0.00,FEW,,0.00,141.0,WeatherDisplay:10.37,2013-09-14 00:54:00,
2013-09-13 17:59:00,84.6,58.3,29.64,WSW,254,4.6,4.6,41,0.00,SCT,,0.00,123.0,WeatherDisplay:10.37,2013-09-14 00:59:00,
2013-09-13 18:04:00,84.7,59.7,29.64,WSW,252,4.0,4.0,43,0.00,SCT,,0.00,105.0,WeatherDisplay:10.37,2013-09-14 01:04:00,
2013-09-13 18:09:00,84.6,59.0,29.64,SW,227,4.6,4.6,42,0.00,SCT,,0.00,90.0,WeatherDisplay:10.37,2013-09-14 01:09:00,
2013-09-13 18:14:00,84.4,58.8,29.64,WSW,250,5.0,5.0,42,0.00,SCT,,0.00,74.0,WeatherDisplay:10.37,2013-09-14 01:14:00,
2013-09-13 18:19:00,83.9,59.0,29.64,SSW,195,6.0,6.0,43,0.00,SCT,,0.00,60.0,WeatherDisplay:10.37,2013-09-14 01:19:00,
2013-09-13 18:24:00,83.2,58.4,29.64,SW,221,4.6,4.6,43,0.00,BKN,,0.00,49.0,WeatherDisplay:10.37,2013-09-14 01:24:00,
2013-09-13 18:29:00,83.0,58.2,29.64,SSW,208,4.6,4.6,43,0.00,BKN,,0.00,39.0,WeatherDisplay:10.37,2013-09-14 01:29:00,
2013-09-13 18:34:00,82.9,58.1,29.64,SSW,211,5.0,5.0,43,0.00,BKN,,0.00,30.0,WeatherDisplay:10.37,2013-09-14 01:34:00,
2013-09-13 18:39:00,82.6,57.2,29.64,SSW,209,3.5,3.5,42,0.00,BKN,,0.00,21.0,WeatherDisplay:10.37,2013-09-14 01:39:00,
2013-09-13 18:44:00,82.4,57.0,29.64,SW,215,3.5,3.5,42,0.00,BKN,,0.00,16.0,WeatherDisplay:10.37,2013-09-14 01:44:00,
2013-09-13 18:49:00,82.2,56.8,29.64,WSW,252,4.0,4.0,42,0.00,BKN,,0.00,11.0,WeatherDisplay:10.37,2013-09-14 01:49:00,
2013-09-13 18:54:00,81.9,57.8,29.64,West,265,5.8,5.8,44,0.00,BKN,,0.00,7.0,WeatherDisplay:10.37,2013-09-14 01:54:00,
2013-09-13 18:59:00,81.5,57.5,29.64,West,259,3.5,3.5,44,0.00,SCT,,0.00,5.0,WeatherDisplay:10.37,2013-09-14 01:59:00,
2013-09-13 19:04:00,81.2,58.5,29.64,West,259,3.5,3.5,46,0.00,CLR,,0.00,0.0,WeatherDisplay:10.37,2013-09-14 02:04:00,
2013-09-13 19:09:00,80.8,59.3,29.64,West,263,7.0,7.0,48,0.00,CLR,,0.00,0.0,WeatherDisplay:10.37,2013-09-14 02:09:00,
2013-09-13 19:14:00,80.3,58.8,29.64,West,275,5.8,5.8,48,0.00,CLR,,0.00,0.0,WeatherDisplay:10.37,2013-09-14 02:14:00,
2013-09-13 19:19:00,79.9,57.9,29.64,West,280,6.9,6.9,47,0.00,CLR,,0.00,0.0,WeatherDisplay:10.37,2013-09-14 02:19:00,
2013-09-13 19:24:00,79.4,58.0,29.65,WSW,257,7.0,7.0,48,0.00,CLR,,0.00,0.0,WeatherDisplay:10.37,2013-09-14 02:24:00,
2013-09-13 19:29:00,79.0,58.8,29.65,West,273,5.0,5.0,50,0.00,CLR,,0.00,0.0,WeatherDisplay:10.37,2013-09-14 02:29:00,
2013-09-13 19:34:00,78.5,59.9,29.65,West,265,4.6,4.6,53,0.00,CLR,,0.00,0.0,WeatherDisplay:10.37,2013-09-14 02:34:00,
2013-09-13 19:39:00,78.0,60.5,29.65,West,266,4.6,4.6,55,0.00,CLR,,0.00,0.0,WeatherDisplay:10.37,2013-09-14 02:39:00,
2013-09-13 19:44:00,77.5,60.6,29.65,West,262,4.0,4.0,56,0.00,CLR,,0.00,0.0,WeatherDisplay:10.37,2013-09-14 02:44:00,
2013-09-13 19:49:00,77.1,61.2,29.65,West,269,4.0,4.0,58,0.00,CLR,,0.00,0.0,WeatherDisplay:10.37,2013-09-14 02:49:00,
2013-09-13 19:54:00,76.7,61.8,29.65,West,267,4.6,4.6,60,0.00,CLR,,0.00,0.0,WeatherDisplay:10.37,2013-09-14 02:54:00,
2013-09-13 19:59:00,76.2,62.2,29.66,West,265,3.5,3.5,62,0.00,CLR,,0.00,0.0,WeatherDisplay:10.37,2013-09-14 02:59:00,
2013-09-13 20:04:00,75.7,62.2,29.66,West,265,5.0,5.0,63,0.00,CLR,,0.00,0.0,WeatherDisplay:10.37,2013-09-14 03:04:00,
2013-09-13 20:09:00,75.3,61.4,29.66,West,277,6.0,6.0,62,0.00,CLR,,0.00,0.0,WeatherDisplay:10.37,2013-09-14 03:09:00,
2013-09-13 20:14:00,75.1,61.6,29.66,West,277,5.0,5.0,63,0.00,CLR,,0.00,0.0,WeatherDisplay:10.37,2013-09-14 03:14:00,
2013-09-13 20:19:00,74.8,61.4,29.66,West,277,4.6,4.6,63,0.00,CLR,,0.00,0.0,WeatherDisplay:10.37,2013-09-14 03:19:00,
2013-09-13 20:24:00,74.3,60.9,29.67,West,273,4.6,4.6,63,0.00,CLR,,0.00,0.0,WeatherDisplay:10.37,2013-09-14 03:24:00,
2013-09-13 20:29:00,73.8,60.9,29.67,West,265,6.0,6.0,64,0.00,CLR,,0.00,0.0,WeatherDisplay:10.37,2013-09-14 03:29:00,
2013-09-13 20:34:00,73.3,60.8,29.67,West,261,4.6,4.6,65,0.00,CLR,,0.00,0.0,WeatherDisplay:10.37,2013-09-14 03:34:00,
2013-09-13 20:39:00,73.0,61.4,29.67,West,261,6.0,6.0,67,0.00,CLR,,0.00,0.0,WeatherDisplay:10.37,2013-09-14 03:39:00,
2013-09-13 20:44:00,72.6,61.4,29.67,West,261,4.6,4.6,68,0.00,CLR,,0.00,0.0,WeatherDisplay:10.37,2013-09-14 03:44:00,
2013-09-13 20:49:00,72.4,61.7,29.67,West,267,6.9,6.9,69,0.00,CLR,,0.00,0.0,WeatherDisplay:10.37,2013-09-14 03:49:00,
2013-09-13 20:54:00,72.1,61.8,29.67,West,279,4.0,4.0,70,0.00,CLR,,0.00,0.0,WeatherDisplay:10.37,2013-09-14 03:54:00,
2013-09-13 20:59:00,71.8,61.5,29.67,WNW,288,4.6,4.6,70,0.00,CLR,,0.00,0.0,WeatherDisplay:10.37,2013-09-14 03:59:00,
2013-09-13 21:01:00,71.7,61.4,29.67,WNW,286,5.8,5.8,70,0.00,CLR,,0.00,0.0,WeatherDisplay:10.37,2013-09-14 04:01:00,
2013-09-13 21:02:00,71.7,61.4,29.68,WNW,289,7.0,7.0,70,0.00,CLR,,0.00,0.0,WeatherDisplay:10.37,2013-09-14 04:02:00,
2013-09-13 21:07:00,71.3,61.4,29.68,WNW,286,6.0,6.0,71,0.00,CLR,,0.00,0.0,WeatherDisplay:10.37,2013-09-14 04:07:00,
2013-09-13 21:12:00,71.2,61.3,29.68,West,273,4.6,4.6,71,0.00,CLR,,0.00,0.0,WeatherDisplay:10.37,2013-09-14 04:12:00,
2013-09-13 21:17:00,71.0,61.1,29.68,West,281,6.0,6.0,71,0.00,CLR,,0.00,0.0,WeatherDisplay:10.37,2013-09-14 04:17:00,
2013-09-13 21:22:00,70.9,61.0,29.68,WNW,285,5.0,5.0,71,0.00,CLR,,0.00,0.0,WeatherDisplay:10.37,2013-09-14 04:22:00,
2013-09-13 21:27:00,70.8,60.9,29.68,WNW,284,5.0,5.0,71,0.00,CLR,,0.00,0.0,WeatherDisplay:10.37,2013-09-14 04:27:00,
2013-09-13 21:32:00,70.7,60.8,29.68,WNW,284,4.6,4.6,71,0.00,CLR,,0.00,0.0,WeatherDisplay:10.37,2013-09-14 04:32:00,
2013-09-13 21:37:00,70.7,60.8,29.68,WNW,284,3.5,3.5,71,0.00,CLR,,0.00,0.0,WeatherDisplay:10.37,2013-09-14 04:37:00,
2013-09-13 21:42:00,70.8,60.9,29.68,WNW,284,3.5,3.5,71,0.00,CLR,,0.00,0.0,WeatherDisplay:10.37,2013-09-14 04:42:00,
2013-09-13 21:47:00,70.7,60.8,29.68,WNW,284,1.2,1.2,71,0.00,CLR,,0.00,0.0,WeatherDisplay:10.37,2013-09-14 04:47:00,
2013-09-13 21:52:00,70.8,60.9,29.68,WNW,284,0.0,0.0,71,0.00,CLR,,0.00,0.0,WeatherDisplay:10.37,2013-09-14 04:52:00,
2013-09-13 21:57:00,70.7,60.8,29.68,WNW,284,2.3,2.3,71,0.00,CLR,,0.00,0.0,WeatherDisplay:10.37,2013-09-14 04:57:00,
2013-09-13 22:02:00,70.6,60.7,29.68,WNW,284,2.3,2.3,71,0.00,CLR,,0.00,0.0,WeatherDisplay:10.37,2013-09-14 05:02:00,
2013-09-13 22:07:00,70.6,60.7,29.68,WNW,284,1.2,1.2,71,0.00,CLR,,0.00,0.0,WeatherDisplay:10.37,2013-09-14 05:07:00,
2013-09-13 22:12:00,70.6,61.1,29.68,WNW,284,2.3,2.3,72,0.00,CLR,,0.00,0.0,WeatherDisplay:10.37,2013-09-14 05:12:00,
2013-09-13 22:17:00,70.5,61.0,29.68,WNW,284,1.2,1.2,72,0.00,CLR,,0.00,0.0,WeatherDisplay:10.37,2013-09-14 05:17:00,
2013-09-13 22:22:00,70.5,61.0,29.68,WNW,284,0.0,0.0,72,0.00,CLR,,0.00,0.0,WeatherDisplay:10.37,2013-09-14 05:22:00,
2013-09-13 22:27:00,70.5,61.0,29.68,WNW,284,1.0,1.0,72,0.00,CLR,,0.00,0.0,WeatherDisplay:10.37,2013-09-14 05:27:00,
2013-09-13 22:32:00,70.4,60.9,29.68,WNW,284,0.0,0.0,72,0.00,CLR,,0.00,0.0,WeatherDisplay:10.37,2013-09-14 05:32:00,
2013-09-13 22:37:00,70.3,60.8,29.68,WNW,284,1.2,0.0,72,0.00,CLR,,0.00,0.0,WeatherDisplay:10.37,2013-09-14 05:37:00,
2013-09-13 22:42:00,70.2,60.7,29.68,WNW,284,1.2,0.0,72,0.00,CLR,,0.00,0.0,WeatherDisplay:10.37,2013-09-14 05:42:00,
2013-09-13 22:47:00,70.2,60.4,29.68,WNW,284,1.2,1.2,71,0.00,CLR,,0.00,0.0,WeatherDisplay:10.37,2013-09-14 05:47:00,
2013-09-13 22:52:00,70.2,60.4,29.68,WNW,284,1.2,0.0,71,0.00,CLR,,0.00,0.0,WeatherDisplay:10.37,2013-09-14 05:52:00,
2013-09-13 22:57:00,70.2,60.4,29.68,WNW,284,1.2,1.2,71,0.00,CLR,,0.00,0.0,WeatherDisplay:10.37,2013-09-14 05:57:00,
2013-09-13 23:02:00,70.2,60.4,29.68,WNW,284,0.0,0.0,71,0.00,CLR,,0.00,0.0,WeatherDisplay:10.37,2013-09-14 06:02:00,
2013-09-13 23:07:00,70.1,60.7,29.68,WNW,284,1.2,0.0,72,0.00,CLR,,0.00,0.0,WeatherDisplay:10.37,2013-09-14 06:07:00,
2013-09-13 23:12:00,70.0,60.2,29.68,WNW,284,0.0,0.0,71,0.00,CLR,,0.00,0.0,WeatherDisplay:10.37,2013-09-14 06:12:00,
2013-09-13 23:17:00,69.9,60.5,29.68,WNW,284,0.0,0.0,72,0.00,CLR,,0.00,0.0,WeatherDisplay:10.37,2013-09-14 06:17:00,
2013-09-13 23:22:00,69.8,60.0,29.68,WNW,284,1.2,0.0,71,0.00,CLR,,0.00,0.0,WeatherDisplay:10.37,2013-09-14 06:22:00,
2013-09-13 23:27:00,69.8,60.0,29.68,WNW,284,1.0,0.0,71,0.00,CLR,,0.00,0.0,WeatherDisplay:10.37,2013-09-14 06:27:00,
2013-09-13 23:32:00,69.9,60.1,29.68,WNW,284,0.0,0.0,71,0.00,CLR,,0.00,0.0,WeatherDisplay:10.37,2013-09-14 06:32:00,
2013-09-13 23:37:00,69.9,60.1,29.68,WNW,284,0.0,0.0,71,0.00,CLR,,0.00,0.0,WeatherDisplay:10.37,2013-09-14 06:37:00,
2013-09-13 23:42:00,69.8,60.4,29.68,WNW,284,0.0,0.0,72,0.00,CLR,,0.00,0.0,WeatherDisplay:10.37,2013-09-14 06:42:00,
2013-09-13 23:47:00,69.7,60.3,29.68,WNW,284,0.0,0.0,72,0.00,CLR,,0.00,0.0,WeatherDisplay:10.37,2013-09-14 06:47:00,
2013-09-13 23:52:00,69.5,60.1,29.68,WNW,284,0.0,0.0,72,0.00,CLR,,0.00,0.0,WeatherDisplay:10.37,2013-09-14 06:52:00,
2013-09-13 23:57:00,69.4,60.0,29.68,WNW,284,0.0,0.0,72,0.00,CLR,,0.00,0.0,WeatherDisplay:10.37,2013-09-14 06:57:00,